Big Run, West Virginia
Current Conditions -  °F | °C
As of 6:53 PM on Thursday 18 Dec 2014 (Local Time) from KCKB Reporting Station
Overcast Overcast  
Wind Chill: 23°   Ceiling: 1700
Heat Index: 28°   Visibility: 10mi
Dew Point: 21°   Wind: 5mph
Humidity: 75%   Direction: 260°W
Pressure: 30.17"   Gusts: NA
Location:  39.59°N, 80.58°W
Report Text: KCKB 182353Z 26004KT 10SM OVC017 M02/M06 A3017 RMK AO2 SLP226 T10221061 11022 21028 51003
Loading
Personal Weather Stations






























Interactive Weather Map New forecast layout! Learn more

10-Day Weather Forecast

Advertisements
Track Severe Weather on mobile